createdAt,value
2017-11-01T00:01:56.088Z,2.20
2017-11-01T00:04:24.066Z,2.20
2017-11-01T00:06:52.340Z,2.20
2017-11-01T00:09:20.415Z,2.20
2017-11-01T00:11:48.374Z,2.20
2017-11-01T00:14:16.371Z,2.30
2017-11-01T00:16:44.344Z,2.50
2017-11-01T00:19:12.165Z,2.90
2017-11-01T00:21:40.072Z,3.00
2017-11-01T00:24:08.422Z,2.90
2017-11-01T00:26:36.374Z,2.80
2017-11-01T00:29:04.482Z,2.70
2017-11-01T00:31:32.366Z,2.80
2017-11-01T00:34:00.236Z,2.80
2017-11-01T00:36:28.792Z,2.80
2017-11-01T00:38:56.952Z,2.80
2017-11-01T00:41:24.835Z,2.80
2017-11-01T00:43:52.719Z,2.70
2017-11-01T00:46:20.817Z,2.70
2017-11-01T00:48:48.640Z,2.70
2017-11-01T00:51:16.485Z,2.70
2017-11-01T00:53:44.383Z,2.80
2017-11-01T00:56:12.340Z,2.90
2017-11-01T00:58:40.124Z,3.00
2017-11-01T01:01:08.779Z,3.10
2017-11-01T01:03:36.920Z,3.10
2017-11-01T01:06:05.032Z,3.10
2017-11-01T01:08:32.883Z,3.00
2017-11-01T01:11:00.937Z,3.00
2017-11-01T01:13:28.963Z,2.80
2017-11-01T01:15:57.815Z,2.40
2017-11-01T01:18:25.697Z,2.50
2017-11-01T01:20:55.261Z,2.30
2017-11-01T01:23:23.260Z,2.20
2017-11-01T01:25:51.049Z,2.10
2017-11-01T01:28:20.341Z,2.00
2017-11-01T01:30:48.134Z,2.00
2017-11-01T01:33:16.791Z,2.00
2017-11-01T01:35:45.778Z,2.10
2017-11-01T01:38:13.639Z,2.10
2017-11-01T01:40:42.227Z,2.20
2017-11-01T01:43:10.192Z,2.40
2017-11-01T01:45:39.280Z,2.60
2017-11-01T01:48:07.155Z,2.70
2017-11-01T01:50:35.366Z,2.80
2017-11-01T01:53:03.277Z,2.90
2017-11-01T01:55:31.355Z,3.10
2017-11-01T01:57:59.538Z,3.20
2017-11-01T02:00:27.459Z,3.30
2017-11-01T02:02:55.594Z,3.40
2017-11-01T02:05:23.561Z,3.50
2017-11-01T02:07:52.021Z,3.60
2017-11-01T02:10:20.084Z,3.70
2017-11-01T02:12:47.989Z,3.80
2017-11-01T02:15:16.651Z,3.90
2017-11-01T02:17:44.503Z,3.90
2017-11-01T02:20:12.628Z,3.90
2017-11-01T02:22:41.814Z,4.00
2017-11-01T02:25:10.799Z,4.10
2017-11-01T02:27:38.761Z,4.10
2017-11-01T02:30:07.523Z,4.20
2017-11-01T02:32:35.508Z,4.20
2017-11-01T02:35:03.357Z,4.20
2017-11-01T02:37:31.530Z,4.10
2017-11-01T02:39:59.497Z,4.10
2017-11-01T02:42:28.214Z,4.10
2017-11-01T02:44:56.100Z,4.00
2017-11-01T02:47:25.042Z,4.00
2017-11-01T02:49:52.876Z,4.00
2017-11-01T02:52:20.863Z,4.00
2017-11-01T02:54:48.884Z,4.00
2017-11-01T02:57:17.020Z,4.00
2017-11-01T02:59:44.879Z,4.00
2017-11-01T03:02:12.751Z,4.10
2017-11-01T03:04:40.651Z,4.00
2017-11-01T03:07:08.612Z,4.10
2017-11-01T03:09:36.692Z,4.10
2017-11-01T03:12:04.551Z,4.10
2017-11-01T03:14:32.412Z,4.20
2017-11-01T03:17:00.460Z,4.20
2017-11-01T03:19:28.459Z,4.20
2017-11-01T03:21:56.503Z,4.20
2017-11-01T03:24:24.379Z,4.30
2017-11-01T03:26:52.250Z,4.30
2017-11-01T03:29:20.321Z,4.30
2017-11-01T03:31:48.295Z,4.40
2017-11-01T03:34:16.163Z,4.40
2017-11-01T03:36:44.211Z,4.40
2017-11-01T03:39:12.056Z,4.40
2017-11-01T03:41:40.087Z,4.40
2017-11-01T03:44:08.066Z,4.50
2017-11-01T03:46:43.595Z,4.50
2017-11-01T03:49:12.247Z,4.40
2017-11-01T03:51:40.332Z,4.50
2017-11-01T03:54:08.306Z,4.40
2017-11-01T03:56:36.369Z,4.40
2017-11-01T03:59:05.043Z,4.40
2017-11-01T04:01:33.027Z,4.40
2017-11-01T04:04:00.890Z,4.40
2017-11-01T04:06:28.745Z,4.40
2017-11-01T04:08:56.883Z,4.40
2017-11-01T04:11:25.218Z,4.40
2017-11-01T04:13:53.065Z,4.40
2017-11-01T04:16:21.056Z,4.30
2017-11-01T04:18:54.648Z,4.40
2017-11-01T04:21:22.626Z,4.40
2017-11-01T04:23:50.483Z,4.50
2017-11-01T04:26:18.360Z,4.50
2017-11-01T04:28:46.201Z,4.60
2017-11-01T04:31:14.246Z,4.60
2017-11-01T04:33:42.269Z,4.70
2017-11-01T04:36:11.037Z,4.60
2017-11-01T04:38:38.906Z,4.60
2017-11-01T04:41:06.978Z,4.50
2017-11-01T04:43:35.054Z,4.50
2017-11-01T04:46:03.826Z,4.40
2017-11-01T04:48:31.816Z,4.30
2017-11-01T04:50:59.894Z,4.30
2017-11-01T04:53:27.735Z,4.20
2017-11-01T04:55:55.601Z,4.20
2017-11-01T04:58:24.774Z,4.20
2017-11-01T05:00:52.625Z,4.30
2017-11-01T05:03:29.451Z,4.30
2017-11-01T05:05:57.504Z,4.30
2017-11-01T05:08:31.499Z,4.30
2017-11-01T05:10:59.414Z,4.40
2017-11-01T05:13:50.512Z,4.30
2017-11-01T05:16:21.480Z,4.30
2017-11-01T05:18:50.319Z,4.40
2017-11-01T05:21:18.289Z,4.40
2017-11-01T05:23:48.037Z,4.40
2017-11-01T05:26:16.711Z,4.40
2017-11-01T05:28:44.789Z,4.30
2017-11-01T05:31:12.725Z,4.30
2017-11-01T05:33:40.924Z,4.40
2017-11-01T05:36:08.983Z,4.40
2017-11-01T05:38:36.877Z,4.40
2017-11-01T05:41:04.804Z,4.40
2017-11-01T05:43:32.892Z,4.40
2017-11-01T05:46:00.920Z,4.40
2017-11-01T05:48:28.931Z,4.40
2017-11-01T05:50:57.002Z,4.40
2017-11-01T05:53:25.369Z,4.40
2017-11-01T05:55:53.348Z,4.40
2017-11-01T05:58:21.357Z,4.40
2017-11-01T06:00:50.029Z,4.50
2017-11-01T06:03:17.924Z,4.50
2017-11-01T06:05:46.252Z,4.50
2017-11-01T06:08:17.008Z,4.50
2017-11-01T06:10:45.750Z,4.60
2017-11-01T06:13:13.742Z,4.60
2017-11-01T06:15:41.788Z,4.70
2017-11-01T06:18:09.788Z,4.70
2017-11-01T06:20:37.731Z,4.70
2017-11-01T06:25:59.938Z,4.90
2017-11-01T06:28:28.164Z,4.90
2017-11-01T06:30:56.224Z,4.90
2017-11-01T06:33:24.243Z,5.00
2017-11-01T06:35:53.017Z,5.00
2017-11-01T06:38:20.873Z,5.00
2017-11-01T06:40:48.935Z,5.10
2017-11-01T06:43:17.244Z,5.10
2017-11-01T06:45:45.988Z,5.20
2017-11-01T06:48:13.983Z,5.20
2017-11-01T06:50:42.065Z,5.30
2017-11-01T06:53:11.022Z,5.30
2017-11-01T06:55:39.379Z,5.40
2017-11-01T06:58:07.202Z,5.40
2017-11-01T07:00:38.756Z,5.40
2017-11-01T07:03:06.787Z,5.40
2017-11-01T07:05:34.670Z,5.50
2017-11-01T07:08:02.519Z,5.60
2017-11-01T07:10:30.517Z,5.50
2017-11-01T07:12:58.354Z,5.50
2017-11-01T07:15:26.676Z,5.40
2017-11-01T07:17:55.320Z,5.40
2017-11-01T07:20:23.294Z,5.40
2017-11-01T07:22:52.273Z,5.50
2017-11-01T07:25:20.349Z,5.50
2017-11-01T07:27:48.439Z,5.60
2017-11-01T07:30:16.694Z,5.70
2017-11-01T07:32:44.473Z,5.80
2017-11-01T07:35:12.753Z,6.00
2017-11-01T07:37:40.619Z,6.10
2017-11-01T07:40:08.913Z,6.00
2017-11-01T07:42:37.575Z,6.20
2017-11-01T07:45:05.653Z,6.20
2017-11-01T07:47:33.706Z,6.40
2017-11-01T07:50:01.778Z,6.50
2017-11-01T07:52:29.781Z,6.60
2017-11-01T07:54:57.717Z,6.60
2017-11-01T07:57:26.122Z,6.80
2017-11-01T07:59:53.999Z,6.90
2017-11-01T08:02:22.765Z,6.80
2017-11-01T08:04:50.526Z,6.80
2017-11-01T08:07:18.403Z,6.80
2017-11-01T08:09:46.369Z,6.90
2017-11-01T08:12:14.231Z,6.90
2017-11-01T08:14:42.154Z,6.80
2017-11-01T08:17:09.894Z,6.90
2017-11-01T08:19:38.464Z,7.00
2017-11-01T08:22:07.373Z,6.90
2017-11-01T08:24:35.443Z,7.20
2017-11-01T08:27:04.205Z,7.20
2017-11-01T08:29:32.147Z,7.20
2017-11-01T08:31:59.990Z,7.50
2017-11-01T08:34:27.995Z,7.70
2017-11-01T08:36:55.864Z,8.00
2017-11-01T08:39:24.187Z,7.90
2017-11-01T08:41:52.022Z,7.90
2017-11-01T08:44:20.080Z,8.00
2017-11-01T08:46:48.054Z,8.00
2017-11-01T08:49:15.924Z,8.20
2017-11-01T08:51:43.781Z,8.50
2017-11-01T08:54:11.731Z,8.60
2017-11-01T08:56:39.600Z,8.80
2017-11-01T08:59:07.467Z,8.80
2017-11-01T09:01:35.250Z,8.80
2017-11-01T09:04:03.406Z,9.00
2017-11-01T09:06:31.469Z,9.20
2017-11-01T09:08:59.543Z,9.60
2017-11-01T09:11:27.628Z,9.90
2017-11-01T09:13:55.642Z,9.90
2017-11-01T09:16:24.373Z,9.30
2017-11-01T09:18:52.471Z,9.20
2017-11-01T09:21:20.420Z,9.60
2017-11-01T09:23:48.294Z,10.00
2017-11-01T09:26:16.045Z,10.30
2017-11-01T09:28:44.318Z,10.60
2017-11-01T09:31:13.124Z,10.30
2017-11-01T09:33:41.191Z,10.20
2017-11-01T09:36:09.153Z,10.00
2017-11-01T09:38:36.904Z,9.70
2017-11-01T09:41:04.692Z,9.40
2017-11-01T09:43:32.456Z,9.70
2017-11-01T09:46:00.442Z,9.50
2017-11-01T09:48:29.092Z,9.40
2017-11-01T09:50:56.961Z,9.70
2017-11-01T09:53:24.851Z,10.10
2017-11-01T09:55:52.651Z,10.40
2017-11-01T09:58:22.379Z,10.10
2017-11-01T10:00:50.178Z,10.10
2017-11-01T10:03:18.060Z,10.00
2017-11-01T10:05:46.034Z,9.90
2017-11-01T10:08:15.040Z,10.40
2017-11-01T10:10:43.579Z,11.20
2017-11-01T10:13:11.472Z,11.20
2017-11-01T10:15:40.233Z,11.20
2017-11-01T10:18:08.198Z,11.50
2017-11-01T10:20:36.291Z,11.70
2017-11-01T10:23:04.165Z,11.70
2017-11-01T10:25:32.314Z,11.60
2017-11-01T10:28:00.325Z,11.60
2017-11-01T10:30:28.853Z,11.60
2017-11-01T10:32:56.852Z,11.60
2017-11-01T10:35:25.547Z,11.50
2017-11-01T10:37:53.402Z,11.30
2017-11-01T10:40:21.663Z,10.70
2017-11-01T10:42:49.664Z,10.80
2017-11-01T10:45:18.420Z,11.10
2017-11-01T10:47:46.301Z,11.10
2017-11-01T10:50:14.155Z,11.30
2017-11-01T10:52:41.933Z,11.20
2017-11-01T10:55:09.986Z,11.50
2017-11-01T10:57:37.763Z,11.40
2017-11-01T11:00:05.644Z,11.50
2017-11-01T11:02:33.532Z,11.50
2017-11-01T11:05:02.187Z,11.00
2017-11-01T11:07:30.141Z,11.00
2017-11-01T11:09:58.105Z,11.00
2017-11-01T11:12:26.240Z,10.70
2017-11-01T11:14:54.109Z,10.70
2017-11-01T11:17:21.944Z,10.70
2017-11-01T11:19:50.596Z,10.80
2017-11-01T11:22:18.464Z,10.90
2017-11-01T11:24:47.355Z,10.70
2017-11-01T11:27:15.145Z,10.70
2017-11-01T11:29:43.108Z,10.70
2017-11-01T11:32:11.690Z,11.10
2017-11-01T11:34:39.641Z,11.00
2017-11-01T11:37:07.543Z,11.10
2017-11-01T11:39:35.414Z,11.00
2017-11-01T11:42:04.069Z,10.90
2017-11-01T11:44:31.925Z,10.90
2017-11-01T11:46:59.673Z,11.00
2017-11-01T11:49:27.466Z,11.00
2017-11-01T11:51:55.338Z,11.20
2017-11-01T11:54:23.244Z,11.50
2017-11-01T11:56:51.194Z,11.70
2017-11-01T11:59:19.797Z,12.10
2017-11-01T12:01:47.668Z,12.10
2017-11-01T12:04:16.024Z,12.30
2017-11-01T12:06:44.571Z,12.10
2017-11-01T12:09:12.337Z,12.10
2017-11-01T12:11:40.228Z,12.00
2017-11-01T12:14:08.238Z,11.90
2017-11-01T12:16:36.072Z,11.90
2017-11-01T12:19:04.775Z,11.90
2017-11-01T12:21:33.424Z,11.90
2017-11-01T12:24:01.373Z,11.80
2017-11-01T12:26:29.342Z,11.90
2017-11-01T12:28:57.120Z,11.90
2017-11-01T12:31:24.912Z,11.70
2017-11-01T12:33:52.652Z,11.70
2017-11-01T12:36:20.639Z,11.60
2017-11-01T12:38:48.489Z,11.90
2017-11-01T12:41:16.329Z,11.90
2017-11-01T12:43:44.746Z,12.00
2017-11-01T12:46:12.535Z,11.90
2017-11-01T12:48:42.188Z,11.70
2017-11-01T12:51:10.074Z,11.80
2017-11-01T12:53:38.027Z,11.60
2017-11-01T12:56:06.729Z,11.60
2017-11-01T12:58:34.605Z,11.60
2017-11-01T13:01:02.405Z,11.50
2017-11-01T13:03:30.234Z,11.40
2017-11-01T13:05:58.212Z,11.50
2017-11-01T13:08:26.687Z,11.40
2017-11-01T13:10:55.373Z,11.30
2017-11-01T13:13:23.339Z,11.30
2017-11-01T13:15:52.503Z,11.30
2017-11-01T13:18:20.773Z,11.20
2017-11-01T13:20:49.309Z,11.10
2017-11-01T13:23:17.910Z,10.90
2017-11-01T13:25:45.747Z,10.90
2017-11-01T13:28:14.324Z,11.00
2017-11-01T13:30:43.086Z,10.90
2017-11-01T13:33:10.949Z,11.40
2017-11-01T13:35:38.998Z,11.90
2017-11-01T13:38:07.653Z,12.70
2017-11-01T13:40:36.514Z,13.70
2017-11-01T13:43:04.385Z,13.70
2017-11-01T13:45:32.334Z,13.90
2017-11-01T13:48:00.419Z,14.10
2017-11-01T13:50:28.174Z,14.10
2017-11-01T13:52:55.951Z,13.90
2017-11-01T13:55:24.042Z,13.80
2017-11-01T13:57:51.889Z,14.00
2017-11-01T14:00:19.737Z,13.80
2017-11-01T14:02:47.634Z,14.10
2017-11-01T14:05:15.571Z,14.50
2017-11-01T14:07:44.648Z,14.80
2017-11-01T14:10:12.490Z,14.30
2017-11-01T14:12:40.354Z,14.20
2017-11-01T14:15:08.926Z,14.50
2017-11-01T14:17:37.560Z,14.60
2017-11-01T14:20:05.461Z,14.60
2017-11-01T14:22:33.322Z,13.10
2017-11-01T14:25:01.092Z,13.20
2017-11-01T14:27:28.963Z,13.80
2017-11-01T14:29:56.835Z,14.40
2017-11-01T14:32:25.404Z,15.00
2017-11-01T14:34:53.210Z,15.00
2017-11-01T14:37:20.974Z,14.80
2017-11-01T14:39:49.214Z,14.80
2017-11-01T14:42:17.218Z,15.00
2017-11-01T14:44:45.141Z,14.60
2017-11-01T14:47:12.993Z,14.50
2017-11-01T14:49:40.919Z,14.20
2017-11-01T14:52:08.808Z,13.90
2017-11-01T14:54:36.710Z,13.40
2017-11-01T14:57:04.787Z,12.90
2017-11-01T14:59:32.639Z,12.60
2017-11-01T15:02:00.426Z,12.20
2017-11-01T15:04:28.222Z,11.90
2017-11-01T15:06:56.154Z,11.60
2017-11-01T15:09:24.112Z,11.40
2017-11-01T15:11:52.062Z,11.40
2017-11-01T15:14:19.933Z,11.60
2017-11-01T15:16:47.778Z,11.70
2017-11-01T15:19:15.825Z,11.50
2017-11-01T15:21:43.647Z,11.30
2017-11-01T15:24:11.548Z,11.00
2017-11-01T15:26:40.204Z,10.70
2017-11-01T15:29:08.192Z,10.60
2017-11-01T15:31:36.273Z,10.40
2017-11-01T15:34:05.029Z,10.00
2017-11-01T15:36:33.307Z,10.00
2017-11-01T15:39:01.667Z,9.80
2017-11-01T15:41:29.451Z,9.80
2017-11-01T15:43:57.311Z,9.70
2017-11-01T15:46:25.339Z,9.60
2017-11-01T15:48:53.249Z,9.40
2017-11-01T15:51:21.235Z,9.20
2017-11-01T15:53:48.992Z,9.00
2017-11-01T15:56:17.448Z,9.00
2017-11-01T15:58:45.417Z,8.80
2017-11-01T16:01:13.185Z,8.60
2017-11-01T16:03:47.734Z,8.40
2017-11-01T16:06:15.596Z,8.40
2017-11-01T16:08:43.367Z,8.30
2017-11-01T16:11:11.303Z,8.20
2017-11-01T16:13:40.020Z,8.00
2017-11-01T16:16:08.056Z,7.90
2017-11-01T16:18:35.960Z,7.80
2017-11-01T16:21:03.896Z,7.70
2017-11-01T16:23:31.760Z,7.70
2017-11-01T16:25:59.864Z,7.60
2017-11-01T16:28:27.903Z,7.50
2017-11-01T16:30:55.875Z,7.40
2017-11-01T16:33:23.963Z,7.30
2017-11-01T16:35:51.823Z,7.30
2017-11-01T16:38:19.778Z,7.20
2017-11-01T16:40:47.748Z,7.10
2017-11-01T16:43:15.516Z,7.10
2017-11-01T16:45:43.246Z,7.10
2017-11-01T16:48:11.188Z,7.00
2017-11-01T16:50:39.913Z,6.90
2017-11-01T16:53:08.018Z,6.80
2017-11-01T16:55:35.969Z,6.70
2017-11-01T16:58:03.868Z,6.70
2017-11-01T17:00:32.084Z,6.60
2017-11-01T17:03:00.012Z,6.50
2017-11-01T17:05:27.776Z,6.30
2017-11-01T17:07:55.583Z,6.30
2017-11-01T17:10:24.304Z,6.50
2017-11-01T17:12:52.086Z,6.60
2017-11-01T17:15:19.872Z,6.60
2017-11-01T17:17:48.726Z,6.70
2017-11-01T17:20:16.602Z,6.70
2017-11-01T17:22:45.802Z,6.80
2017-11-01T17:25:13.849Z,6.80
2017-11-01T17:27:41.722Z,6.70
2017-11-01T17:30:09.793Z,6.70
2017-11-01T17:32:37.683Z,6.70
2017-11-01T17:35:05.555Z,6.60
2017-11-01T17:37:33.411Z,6.60
2017-11-01T17:40:01.295Z,6.50
2017-11-01T17:42:29.846Z,6.30
2017-11-01T17:44:57.729Z,6.30
2017-11-01T17:47:25.593Z,6.10
2017-11-01T17:49:53.536Z,5.90
2017-11-01T17:52:21.432Z,6.00
2017-11-01T17:54:50.027Z,6.10
2017-11-01T17:57:18.708Z,6.10
2017-11-01T17:59:47.357Z,6.20
2017-11-01T18:02:15.321Z,6.20
2017-11-01T18:04:43.806Z,6.30
2017-11-01T18:07:11.806Z,6.30
2017-11-01T18:09:39.949Z,6.30
2017-11-01T18:12:07.833Z,6.20
2017-11-01T18:14:35.800Z,6.10
2017-11-01T18:17:03.604Z,6.10
2017-11-01T18:19:32.266Z,6.10
2017-11-01T18:22:00.116Z,6.10
2017-11-01T18:24:27.986Z,6.10
2017-11-01T18:26:57.492Z,6.10
2017-11-01T18:29:25.381Z,6.00
2017-11-01T18:31:54.124Z,5.90
2017-11-01T18:34:22.122Z,5.90
2017-11-01T18:36:50.092Z,5.80
2017-11-01T18:39:17.930Z,5.60
2017-11-01T18:41:45.928Z,5.50
2017-11-01T18:44:13.664Z,5.40
2017-11-01T18:46:41.638Z,5.40
2017-11-01T18:49:09.637Z,5.20
2017-11-01T18:51:37.568Z,5.20
2017-11-01T18:54:05.452Z,5.40
2017-11-01T18:56:33.942Z,5.60
2017-11-01T18:59:02.000Z,5.50
2017-11-01T19:01:29.974Z,5.50
2017-11-01T19:03:57.921Z,5.30
2017-11-01T19:06:25.786Z,5.30
2017-11-01T19:08:53.759Z,5.30
2017-11-01T19:11:21.555Z,5.30
2017-11-01T19:13:50.473Z,5.20
2017-11-01T19:16:19.116Z,5.10
2017-11-01T19:18:47.243Z,5.10
2017-11-01T19:21:15.243Z,5.10
2017-11-01T19:23:44.083Z,5.80
2017-11-01T19:26:12.744Z,5.80
2017-11-01T19:28:40.682Z,5.80
2017-11-01T19:31:08.756Z,5.80
2017-11-01T19:33:36.862Z,5.70
2017-11-01T19:36:06.385Z,5.40
2017-11-01T19:38:35.155Z,5.50
2017-11-01T19:41:04.040Z,5.50
2017-11-01T19:43:32.285Z,5.50
2017-11-01T19:46:00.171Z,5.40
2017-11-01T19:48:28.162Z,5.60
2017-11-01T19:50:56.788Z,5.70
2017-11-01T19:53:25.092Z,5.70
2017-11-01T19:55:53.086Z,5.80
2017-11-01T19:58:21.024Z,5.90
2017-11-01T20:00:48.927Z,5.80
2017-11-01T20:03:17.695Z,5.60
2017-11-01T20:05:45.688Z,5.50
2017-11-01T20:08:14.336Z,5.30
2017-11-01T20:10:42.381Z,5.30
2017-11-01T20:13:10.400Z,5.20
2017-11-01T20:15:38.367Z,5.20
2017-11-01T20:18:06.320Z,5.20
2017-11-01T20:20:34.229Z,5.30
2017-11-01T20:23:02.958Z,5.30
2017-11-01T20:25:30.842Z,5.30
2017-11-01T20:27:59.107Z,5.30
2017-11-01T20:30:27.093Z,5.20
2017-11-01T20:32:56.064Z,5.00
2017-11-01T20:35:24.194Z,5.00
2017-11-01T20:37:52.216Z,5.20
2017-11-01T20:40:20.105Z,5.60
2017-11-01T20:42:48.344Z,5.80
2017-11-01T20:45:16.241Z,6.10
2017-11-01T20:47:44.079Z,6.50
2017-11-01T20:50:12.090Z,6.60
2017-11-01T20:52:40.780Z,6.40
2017-11-01T20:55:09.452Z,6.20
2017-11-01T20:57:37.805Z,6.20
2017-11-01T21:00:05.690Z,5.90
2017-11-01T21:02:34.119Z,5.70
2017-11-01T21:05:01.973Z,5.60
2017-11-01T21:07:29.930Z,5.60
2017-11-01T21:09:58.480Z,5.50
2017-11-01T21:12:26.368Z,5.50
2017-11-01T21:14:55.240Z,5.50
2017-11-01T21:17:23.946Z,5.50
2017-11-01T21:19:52.705Z,5.30
2017-11-01T21:22:20.669Z,5.30
2017-11-01T21:24:48.750Z,5.20
2017-11-01T21:27:16.706Z,5.10
2017-11-01T21:29:44.632Z,5.10
2017-11-01T21:32:13.211Z,5.00
2017-11-01T21:34:41.333Z,5.00
2017-11-01T21:37:09.170Z,5.30
2017-11-01T21:39:37.160Z,5.70
2017-11-01T21:42:05.003Z,6.00
2017-11-01T21:44:32.924Z,5.90
2017-11-01T21:47:00.796Z,5.90
2017-11-01T21:49:29.327Z,6.00
2017-11-01T21:51:57.522Z,6.00
2017-11-01T21:54:26.724Z,6.00
2017-11-01T21:56:54.509Z,5.60
2017-11-01T21:59:22.478Z,5.50
2017-11-01T22:01:50.336Z,5.40
2017-11-01T22:04:18.309Z,5.30
2017-11-01T22:06:46.111Z,5.20
2017-11-01T22:09:14.155Z,5.20
2017-11-01T22:11:42.899Z,5.20
2017-11-01T22:14:10.866Z,5.10
2017-11-01T22:16:38.768Z,5.30
2017-11-01T22:19:06.621Z,5.30
2017-11-01T22:21:35.203Z,5.50
2017-11-01T22:24:03.051Z,5.40
2017-11-01T22:26:31.763Z,5.30
2017-11-01T22:28:59.756Z,5.10
2017-11-01T22:31:28.425Z,4.80
2017-11-01T22:33:58.088Z,4.80
2017-11-01T22:36:26.139Z,4.70
2017-11-01T22:38:54.062Z,4.70
2017-11-01T22:41:22.049Z,4.70
2017-11-01T22:43:49.991Z,4.60
2017-11-01T22:46:17.833Z,4.60
2017-11-01T22:48:45.831Z,4.80
2017-11-01T22:51:13.598Z,4.70
2017-11-01T22:53:42.569Z,4.70
2017-11-01T22:56:10.538Z,4.70
2017-11-01T22:58:38.506Z,4.70
2017-11-01T23:01:06.534Z,4.70
2017-11-01T23:03:34.573Z,4.70
2017-11-01T23:06:02.442Z,4.80
2017-11-01T23:08:30.213Z,4.90
2017-11-01T23:10:58.144Z,4.90
2017-11-01T23:13:26.132Z,4.90
2017-11-01T23:15:54.093Z,5.00
2017-11-01T23:18:22.075Z,4.90
2017-11-01T23:20:50.021Z,4.90
2017-11-01T23:23:17.899Z,4.90
2017-11-01T23:25:45.912Z,5.10
2017-11-01T23:28:13.734Z,5.10
2017-11-01T23:30:41.902Z,5.10
2017-11-01T23:33:09.883Z,5.00
2017-11-01T23:35:37.647Z,5.00
2017-11-01T23:38:05.630Z,5.00
2017-11-01T23:40:33.463Z,4.90
2017-11-01T23:43:01.705Z,5.00
2017-11-01T23:45:29.710Z,5.00
2017-11-01T23:47:57.466Z,4.90
2017-11-01T23:50:25.260Z,4.90
2017-11-01T23:52:53.113Z,4.90
2017-11-01T23:55:20.974Z,4.80
2017-11-01T23:57:48.766Z,4.80
